DAL160 KMSP-EHAM
Flight info
| Callsign | DAL160 |
|---|---|
| Flight time | N/A |
| Altitude | 41000 |
| Route | WLSTN7 WLSTN DCT CMX DCT 50N080W DCT HENDY DCT YYR DCT JANJO/M085F400 NATT GOMUP/N0478F400 NATT GINGA/N0486F410 DCT ERKIT N110 DOLAS L603 LAMSO |
| Aircraft | A359/H-SDE2E3GHIJ3J4J5LM1ORWXY/LB1D1 |
Departure
| Time | N/A |
|---|---|
| Airport | Minneapolis–Saint Paul International Airport / Wold–Chamberlain Field (KMSP) |
Arrival
| Time | 2026-04-28 03:40 |
|---|---|
| Airport | Amsterdam Airport Schiphol (EHAM) |
| Time | Latitude | Longitude | Altitude | Speed | Heading |
|---|---|---|---|---|---|
| 2026-04-28 03:16 | 52.86230 | 1.98153 | 38927 ft | 488 kts | 99° |
| 2026-04-28 03:17 | 52.85553 | 2.03647 | 38112 ft | 488 kts | 99° |
| 2026-04-28 03:17 | 52.84202 | 2.14535 | 36635 ft | 483 kts | 99° |
| 2026-04-28 03:17 | 52.83516 | 2.20030 | 35865 ft | 482 kts | 99° |
| 2026-04-28 03:18 | 52.82835 | 2.25462 | 35020 ft | 482 kts | 99° |
| 2026-04-28 03:18 | 52.82151 | 2.30902 | 34108 ft | 483 kts | 99° |
| 2026-04-28 03:18 | 52.81475 | 2.36262 | 33104 ft | 483 kts | 100° |
| 2026-04-28 03:18 | 52.80788 | 2.41687 | 32142 ft | 481 kts | 100° |
| 2026-04-28 03:19 | 52.80099 | 2.47101 | 31156 ft | 481 kts | 100° |
| 2026-04-28 03:19 | 52.79411 | 2.52497 | 30103 ft | 480 kts | 101° |
| 2026-04-28 03:19 | 52.78726 | 2.57847 | 29134 ft | 475 kts | 101° |
| 2026-04-28 03:19 | 52.78040 | 2.63165 | 28412 ft | 466 kts | 101° |
| 2026-04-28 03:20 | 52.77367 | 2.68352 | 27705 ft | 457 kts | 101° |
| 2026-04-28 03:20 | 52.76703 | 2.73450 | 26971 ft | 450 kts | 101° |
| 2026-04-28 03:20 | 52.76047 | 2.78482 | 26241 ft | 444 kts | 101° |
| 2026-04-28 03:20 | 52.75619 | 2.81760 | 25774 ft | 440 kts | 101° |
| 2026-04-28 03:21 | 52.74762 | 2.88297 | 24852 ft | 431 kts | 101° |
| 2026-04-28 03:21 | 52.74129 | 2.93096 | 24145 ft | 425 kts | 101° |
| 2026-04-28 03:21 | 52.73457 | 2.97762 | 23562 ft | 421 kts | 105° |
| 2026-04-28 03:21 | 52.72292 | 3.02283 | 23314 ft | 425 kts | 117° |
| 2026-04-28 03:22 | 52.70841 | 3.06479 | 23293 ft | 428 kts | 119° |
| 2026-04-28 03:22 | 52.69367 | 3.10657 | 22843 ft | 418 kts | 119° |
| 2026-04-28 03:22 | 52.67898 | 3.14832 | 21710 ft | 419 kts | 118° |
| 2026-04-28 03:22 | 52.66437 | 3.18986 | 20636 ft | 420 kts | 118° |
| 2026-04-28 03:23 | 52.64971 | 3.23148 | 19608 ft | 419 kts | 118° |
| 2026-04-28 03:23 | 52.63511 | 3.27286 | 18674 ft | 417 kts | 118° |
| 2026-04-28 03:23 | 52.62063 | 3.31382 | 17737 ft | 412 kts | 118° |
| 2026-04-28 03:23 | 52.60652 | 3.35364 | 16913 ft | 392 kts | 118° |
| 2026-04-28 03:24 | 52.59323 | 3.39150 | 16074 ft | 368 kts | 116° |
| 2026-04-28 03:24 | 52.58398 | 3.42870 | 15383 ft | 340 kts | 101° |
| 2026-04-28 03:24 | 52.57963 | 3.46552 | 14741 ft | 316 kts | 95° |
| 2026-04-28 03:24 | 52.57637 | 3.50094 | 14211 ft | 313 kts | 95° |
| 2026-04-28 03:25 | 52.57303 | 3.53587 | 13603 ft | 311 kts | 96° |
| 2026-04-28 03:25 | 52.56952 | 3.57069 | 13011 ft | 307 kts | 96° |
| 2026-04-28 03:25 | 52.56594 | 3.60521 | 12424 ft | 304 kts | 96° |
| 2026-04-28 03:25 | 52.56235 | 3.63927 | 11853 ft | 301 kts | 97° |
| 2026-04-28 03:26 | 52.55877 | 3.67285 | 11484 ft | 296 kts | 97° |
| 2026-04-28 03:26 | 52.55519 | 3.70621 | 11346 ft | 299 kts | 97° |
| 2026-04-28 03:26 | 52.55244 | 3.73173 | 11237 ft | 299 kts | 97° |
| 2026-04-28 03:27 | 52.54916 | 3.76214 | 11143 ft | 293 kts | 97° |
| 2026-04-28 03:27 | 52.54570 | 3.79325 | 10971 ft | 262 kts | 98° |
| 2026-04-28 03:27 | 52.54237 | 3.82322 | 10872 ft | 274 kts | 97° |
| 2026-04-28 03:27 | 52.53898 | 3.85441 | 10759 ft | 277 kts | 98° |
| 2026-04-28 03:28 | 52.53590 | 3.88549 | 10629 ft | 272 kts | 92° |
| 2026-04-28 03:28 | 52.53440 | 3.90591 | 10550 ft | 270 kts | 91° |
| 2026-04-28 03:28 | 52.53099 | 3.94668 | 10243 ft | 273 kts | 95° |
| 2026-04-28 03:28 | 52.52468 | 3.97622 | 9908 ft | 279 kts | 115° |
| 2026-04-28 03:29 | 52.51728 | 3.99359 | 9810 ft | 278 kts | 123° |
| 2026-04-28 03:29 | 52.50514 | 4.01789 | 9663 ft | 273 kts | 123° |
| 2026-04-28 03:29 | 52.49317 | 4.04168 | 9120 ft | 269 kts | 123° |
| 2026-04-28 03:29 | 52.48127 | 4.06510 | 8691 ft | 266 kts | 123° |
| 2026-04-28 03:30 | 52.46942 | 4.08845 | 8334 ft | 266 kts | 123° |
| 2026-04-28 03:30 | 52.45765 | 4.11165 | 7989 ft | 265 kts | 123° |
| 2026-04-28 03:30 | 52.44589 | 4.13478 | 7677 ft | 264 kts | 123° |
| 2026-04-28 03:30 | 52.43413 | 4.15787 | 7333 ft | 264 kts | 123° |
| 2026-04-28 03:31 | 52.42239 | 4.18090 | 6985 ft | 262 kts | 123° |
| 2026-04-28 03:31 | 52.41075 | 4.20370 | 6650 ft | 261 kts | 123° |
| 2026-04-28 03:31 | 52.39909 | 4.22653 | 6291 ft | 260 kts | 123° |
| 2026-04-28 03:31 | 52.38756 | 4.24899 | 6015 ft | 252 kts | 123° |
| 2026-04-28 03:32 | 52.37647 | 4.27032 | 5727 ft | 240 kts | 123° |
| 2026-04-28 03:32 | 52.36587 | 4.29065 | 5375 ft | 234 kts | 122° |
| 2026-04-28 03:32 | 52.35541 | 4.31066 | 5044 ft | 228 kts | 122° |
| 2026-04-28 03:32 | 52.34527 | 4.33007 | 4751 ft | 223 kts | 122° |
| 2026-04-28 03:33 | 52.33525 | 4.34935 | 4461 ft | 222 kts | 122° |
| 2026-04-28 03:33 | 52.32525 | 4.36870 | 4165 ft | 221 kts | 121° |
| 2026-04-28 03:33 | 52.31534 | 4.38798 | 3729 ft | 222 kts | 121° |
| 2026-04-28 03:33 | 52.30546 | 4.40716 | 3366 ft | 219 kts | 122° |
| 2026-04-28 03:34 | 52.29564 | 4.42612 | 3280 ft | 219 kts | 121° |
| 2026-04-28 03:34 | 52.28589 | 4.44504 | 3194 ft | 214 kts | 121° |
| 2026-04-28 03:34 | 52.27655 | 4.46284 | 3087 ft | 200 kts | 122° |
| 2026-04-28 03:34 | 52.26757 | 4.47981 | 3021 ft | 196 kts | 121° |
| 2026-04-28 03:35 | 52.25876 | 4.49669 | 2931 ft | 195 kts | 121° |
| 2026-04-28 03:35 | 52.25004 | 4.51355 | 2833 ft | 194 kts | 121° |
| 2026-04-28 03:35 | 52.24174 | 4.52937 | 2734 ft | 169 kts | 121° |
| 2026-04-28 03:35 | 52.23453 | 4.54246 | 2645 ft | 143 kts | 121° |
| 2026-04-28 03:36 | 52.22837 | 4.55455 | 2488 ft | 143 kts | 114° |
| 2026-04-28 03:36 | 52.22754 | 4.56987 | 2462 ft | 137 kts | 64° |
| 2026-04-28 03:36 | 52.23215 | 4.58366 | 2250 ft | 143 kts | 50° |
| 2026-04-28 03:36 | 52.23779 | 4.59712 | 2035 ft | 143 kts | 55° |
| 2026-04-28 03:37 | 52.24244 | 4.61053 | 1826 ft | 127 kts | 58° |
| 2026-04-28 03:37 | 52.24629 | 4.62254 | 1614 ft | 114 kts | 58° |
| 2026-04-28 03:37 | 52.24974 | 4.63363 | 1397 ft | 106 kts | 58° |
| 2026-04-28 03:37 | 52.25319 | 4.64419 | 1242 ft | 106 kts | 55° |
| 2026-04-28 03:38 | 52.25729 | 4.65428 | 1030 ft | 105 kts | 51° |
| 2026-04-28 03:38 | 52.26120 | 4.66442 | 952 ft | 105 kts | 53° |
| 2026-04-28 03:38 | 52.26501 | 4.67484 | 830 ft | 107 kts | 54° |
| 2026-04-28 03:38 | 52.26894 | 4.68510 | 740 ft | 106 kts | 51° |
| 2026-04-28 03:39 | 52.27292 | 4.69545 | 646 ft | 109 kts | 49° |
| 2026-04-28 03:39 | 52.27695 | 4.70589 | 479 ft | 110 kts | 51° |
| 2026-04-28 03:39 | 52.28101 | 4.71630 | 334 ft | 111 kts | 51° |
| 2026-04-28 03:39 | 52.28509 | 4.72689 | 212 ft | 110 kts | 52° |
| 2026-04-28 03:40 | 52.28920 | 4.73763 | 45 ft | 111 kts | 50° |
| 2026-04-28 03:40 | 52.29314 | 4.74775 | 6 ft | 90 kts | 59° |
| 2026-04-28 03:40 | 52.29502 | 4.75264 | 4 ft | 24 kts | 58° |
| 2026-04-28 03:40 | 52.29647 | 4.75337 | 5 ft | 25 kts | 336° |
| 2026-04-28 03:41 | 52.29699 | 4.75294 | 5 ft | 1 kts | 348° |
| 2026-04-28 03:41 | 52.29716 | 4.75288 | 5 ft | 5 kts | 348° |
| 2026-04-28 03:41 | 52.29765 | 4.75288 | 5 ft | 9 kts | 15° |
| 2026-04-28 03:41 | 52.29833 | 4.75348 | 5 ft | 13 kts | 38° |
| 2026-04-28 03:42 | 52.29895 | 4.75479 | 5 ft | 16 kts | 58° |
| 2026-04-28 03:42 | 52.29962 | 4.75652 | 5 ft | 20 kts | 58° |
| 2026-04-28 03:42 | 52.30043 | 4.75865 | 5 ft | 24 kts | 58° |
| 2026-04-28 03:42 | 52.30134 | 4.76105 | 5 ft | 26 kts | 59° |
| 2026-04-28 03:43 | 52.30236 | 4.76370 | 5 ft | 28 kts | 57° |
| 2026-04-28 03:43 | 52.30285 | 4.76494 | 5 ft | 0 kts | 58° |
| 2026-04-28 03:43 | 52.30291 | 4.76511 | 5 ft | 4 kts | 59° |
| 2026-04-28 03:43 | 52.30310 | 4.76561 | 5 ft | 7 kts | 58° |
| 2026-04-28 03:44 | 52.30345 | 4.76653 | 5 ft | 12 kts | 59° |
| 2026-04-28 03:44 | 52.30398 | 4.76793 | 5 ft | 17 kts | 58° |
| 2026-04-28 03:44 | 52.30467 | 4.76971 | 5 ft | 20 kts | 57° |
| 2026-04-28 03:44 | 52.30548 | 4.77183 | 5 ft | 24 kts | 58° |
| 2026-04-28 03:45 | 52.30622 | 4.77374 | 5 ft | 16 kts | 58° |
| 2026-04-28 03:45 | 52.30711 | 4.77457 | 5 ft | 16 kts | 8° |
| 2026-04-28 03:45 | 52.30836 | 4.77468 | 5 ft | 20 kts | 4° |
| 2026-04-28 03:45 | 52.30986 | 4.77482 | 5 ft | 24 kts | 3° |
| 2026-04-28 03:46 | 52.31059 | 4.77445 | 5 ft | 9 kts | 301° |
| 2026-04-28 03:46 | 52.31074 | 4.77312 | 5 ft | 15 kts | 272° |
| 2026-04-28 03:46 | 52.31078 | 4.77140 | 5 ft | 13 kts | 273° |
| 2026-04-28 03:46 | 52.31083 | 4.76991 | 5 ft | 14 kts | 273° |
| 2026-04-28 03:47 | 52.31062 | 4.76859 | 5 ft | 8 kts | 219° |
| 2026-04-28 03:47 | 52.31034 | 4.76858 | 5 ft | 5 kts | 164° |
| 2026-04-28 03:47 | 52.30999 | 4.76898 | 5 ft | 0 kts | 138° |
| 2026-04-28 03:47 | 52.30989 | 4.76912 | 5 ft | 5 kts | 139° |
| 2026-04-28 03:48 | 52.30976 | 4.76931 | 5 ft | 0 kts | 139° |